PWSweather.com
Personal Weather Stations
Station Observations
TINKAN
Cale De La Rosa And Cindi Way 1, Hereford, AZ 85615

Cale De La Rosa And Cindi Way 1Hereford, AZ 85615

Lat: 31.45672, Lon: -110.23099

Elevation: 4630

Station Type: La Crosse WS-2317

http://www.tinkan.com/weather1.html

Latest ConditionsUpdated 8:45:00 AM MST Thursday, Nov 15, 2018
Currently Today's Max Today's Min Today's Average
Temperature 51.1°F10.6°C 51.1°F10.6°C 26.4°F-3.1°C 35.5°F1.9°C
Dew Point 13.3°F-10.4°C 15.0°F-9.4°C 6.5°F-14.2°C 9.5°F-12.5°C
Winds 1.8 mph SSE2.9 kmh SSE 9.6 mph -15.4 kmh - - 1.3 mph 2.1 kmh
Wind Gusts 8.3 mph13.4 kmh 801.7 mph1290.2 kmh - -
Humidity 22% 45% 22% 34%
Pressure 30.19 in1022.4 mb 30.21 in1023.0 mb 30.16 in1021.3 mb -
Precipitation - 25.91 in658.1 mm - -
Hour Temp Dew Point Humidity Winds Wind Gusts Pressure Precip Precip Rate Daily Precip Total
08:45 AM 51.1°F10.6°C 13.3°F-10.4°C 22% 1.8 mph SSE2.9 kmh SSE 8.3 mph13.4 kmh 30.19 in1022.4 mb 0.00 in0.0 mm 0.00 in0.0 mm 25.91 in658.1 mm
08:30 AM 49.3°F9.6°C 13.6°F-10.2°C 24% 9.6 mph S15.4 kmh S 12.3 mph19.8 kmh 30.19 in1022.4 mb 0.00 in0.0 mm 0.00 in0.0 mm 25.91 in658.1 mm
08:15 AM 46.6°F8.1°C 15.0°F-9.4°C 28% 3.4 mph SE5.5 kmh SE 7.2 mph11.6 kmh 30.18 in1022.0 mb 0.00 in0.0 mm 0.00 in0.0 mm 25.91 in658.1 mm
08:00 AM 39.9°F4.4°C 14.3°F-9.8°C 35% 4.9 mph S7.9 kmh S 4.9 mph7.9 kmh 30.18 in1022.0 mb 0.00 in0.0 mm 0.00 in0.0 mm 25.91 in658.1 mm
07:45 AM 36.9°F2.7°C 13.5°F-10.3°C 38% Calm Calm -- 30.18 in1022.0 mb 0.00 in0.0 mm 0.00 in0.0 mm 25.91 in658.1 mm
07:30 AM 34.0°F1.1°C 12.2°F-11.0°C 40% Calm Calm -- 30.18 in1022.0 mb 0.00 in0.0 mm 0.00 in0.0 mm 25.91 in658.1 mm
07:15 AM 31.1°F-0.5°C 10.6°F-11.9°C 42% Calm Calm -- 30.17 in1021.7 mb 0.00 in0.0 mm 0.00 in0.0 mm 25.91 in658.1 mm
07:00 AM 28.9°F-1.7°C 9.2°F-12.7°C 43% Calm Calm -- 30.18 in1022.0 mb 0.00 in0.0 mm 0.00 in0.0 mm 25.91 in658.1 mm
06:45 AM 29.1°F-1.6°C 8.3°F-13.2°C 41% Calm Calm -- 30.17 in1021.7 mb 0.00 in0.0 mm 0.00 in0.0 mm 25.91 in658.1 mm
06:30 AM 29.1°F-1.6°C 8.3°F-13.2°C 41% Calm Calm -- 30.17 in1021.7 mb 0.00 in0.0 mm 0.00 in0.0 mm 25.91 in658.1 mm
06:15 AM 28.0°F-2.2°C 8.3°F-13.2°C 43% Calm Calm -- 30.17 in1021.7 mb 0.00 in0.0 mm 0.00 in0.0 mm 25.91 in658.1 mm
06:00 AM 28.0°F-2.2°C 8.3°F-13.2°C 43% Calm Calm -- 30.17 in1021.7 mb 0.00 in0.0 mm 0.00 in0.0 mm 25.91 in658.1 mm
05:45 AM 26.4°F-3.1°C 7.3°F-13.7°C 44% Calm Calm -- 30.17 in1021.7 mb 0.00 in0.0 mm 0.00 in0.0 mm 25.91 in658.1 mm
05:30 AM 27.0°F-2.8°C 8.3°F-13.2°C 45% Calm Calm -- 30.16 in1021.3 mb 0.00 in0.0 mm 0.00 in0.0 mm 25.91 in658.1 mm
05:15 AM 27.0°F-2.8°C 8.3°F-13.2°C 45% Calm Calm -- 30.17 in1021.7 mb 0.00 in0.0 mm 0.00 in0.0 mm 25.91 in658.1 mm
05:00 AM 27.1°F-2.7°C 8.0°F-13.3°C 44% Calm Calm -- 30.17 in1021.7 mb 0.00 in0.0 mm 0.00 in0.0 mm 25.91 in658.1 mm
04:45 AM 27.9°F-2.3°C 7.2°F-13.8°C 41% Calm Calm -- 30.17 in1021.7 mb 0.00 in0.0 mm 0.00 in0.0 mm 25.91 in658.1 mm
04:30 AM 28.2°F-2.1°C 7.5°F-13.6°C 41% Calm Calm -- 30.17 in1021.7 mb 0.00 in0.0 mm 0.00 in0.0 mm 25.91 in658.1 mm
04:15 AM 28.2°F-2.1°C 7.0°F-13.9°C 40% Calm Calm -- 30.17 in1021.7 mb 0.00 in0.0 mm 0.00 in0.0 mm 25.91 in658.1 mm
04:00 AM 29.1°F-1.6°C 6.5°F-14.2°C 38% Calm Calm -- 30.18 in1022.0 mb 0.00 in0.0 mm 0.00 in0.0 mm 25.91 in658.1 mm
03:45 AM 30.4°F-0.9°C 7.1°F-13.8°C 37% Calm Calm -- 30.18 in1022.0 mb 0.00 in0.0 mm 0.00 in0.0 mm 25.91 in658.1 mm
03:30 AM 31.8°F-0.1°C 6.5°F-14.2°C 34% Calm Calm -- 30.18 in1022.0 mb 0.00 in0.0 mm 0.00 in0.0 mm 25.91 in658.1 mm
03:15 AM 34.5°F1.4°C 7.6°F-13.6°C 32% Calm Calm -- 30.19 in1022.4 mb 0.00 in0.0 mm 0.00 in0.0 mm 25.91 in658.1 mm
03:00 AM 39.4°F4.1°C 8.8°F-12.9°C 28% Calm Calm 0.9 mph1.4 kmh 30.19 in1022.4 mb 0.00 in0.0 mm 0.00 in0.0 mm 0.00 in0.0 mm
02:45 AM 39.9°F4.4°C 9.2°F-12.7°C 28% 4.3 mph SSW6.9 kmh SSW 4.9 mph7.9 kmh 30.18 in1022.0 mb 0.00 in0.0 mm 0.00 in0.0 mm 0.00 in0.0 mm
02:30 AM 40.1°F4.5°C 9.4°F-12.6°C 28% Calm Calm 3.4 mph5.5 kmh 30.19 in1022.4 mb 0.00 in0.0 mm 0.00 in0.0 mm 0.00 in0.0 mm
02:15 AM 40.5°F4.7°C 9.7°F-12.4°C 28% 6.0 mph SSW9.7 kmh SSW 6.0 mph9.7 kmh 30.19 in1022.4 mb 0.00 in0.0 mm 0.00 in0.0 mm 0.00 in0.0 mm
02:00 AM 41.2°F5.1°C 9.5°F-12.5°C 27% Calm Calm 82.3 mph132.4 kmh 30.19 in1022.4 mb 0.00 in0.0 mm 0.00 in0.0 mm 0.00 in0.0 mm
01:45 AM 41.4°F5.2°C 9.6°F-12.4°C 27% Calm Calm 107.4 mph172.8 kmh 30.20 in1022.7 mb 0.00 in0.0 mm 0.00 in0.0 mm 0.00 in0.0 mm
01:30 AM 40.8°F4.9°C 9.2°F-12.7°C 27% Calm Calm 25.1 mph40.4 kmh 30.20 in1022.7 mb 0.00 in0.0 mm 0.00 in0.0 mm 0.00 in0.0 mm
01:15 AM 40.6°F4.8°C 9.9°F-12.3°C 28% 1.3 mph S2.1 kmh S 46.5 mph74.8 kmh 30.20 in1022.7 mb 0.00 in0.0 mm 0.00 in0.0 mm 0.00 in0.0 mm
01:00 AM 40.8°F4.9°C 10.1°F-12.2°C 28% 4.5 mph S7.2 kmh S 85.9 mph138.2 kmh 30.20 in1022.7 mb 0.00 in0.0 mm 0.00 in0.0 mm 0.00 in0.0 mm
12:45 AM 41.5°F5.3°C 9.8°F-12.3°C 27% 4.3 mph N6.9 kmh N 801.7 mph1290.2 kmh 30.20 in1022.7 mb 0.00 in0.0 mm 0.00 in0.0 mm 0.00 in0.0 mm
12:30 AM 41.4°F5.2°C 10.5°F-11.9°C 28% Calm Calm 4.7 mph7.6 kmh 30.21 in1023.0 mb 0.00 in0.0 mm 0.00 in0.0 mm 0.00 in0.0 mm
12:15 AM 40.8°F4.9°C 10.1°F-12.2°C 28% 0.4 mph S0.6 kmh S 35.8 mph57.6 kmh 30.21 in1023.0 mb 0.00 in0.0 mm 0.00 in0.0 mm 0.00 in0.0 mm
12:00 AM 41.4°F5.2°C 10.5°F-11.9°C 28% 6.3 mph SSW10.1 kmh SSW 103.8 mph167.0 kmh 30.21 in1023.0 mb 0.00 in0.0 mm 0.00 in0.0 mm 0.00 in0.0 mm